New Orleans, LA (70189)

6:30 PM CDT on May 04, 2015 (GMT -0500)
Tammany Yacht Club | | Change Station
CLOSE
Current Station
Personal Weather Station
Location: Slidell, LA
Elevation: 33 ft
Nearby Weather Stations

Elev 33 ft 30.22 °N, 89.80 °W | Updated 5 seconds ago

Overcast
Overcast
75.5 °F
Feels Like 76 °F
N
12.0
Wind Variable Wind from SE
Gusts 18.0 mph

Today
High -- | Low -- °F
--% Chance of Precip.
Yesterday
High -- | Low -- °F
Precip. -- in
6:13 AM 7:38 PM
Full, 99% visible
Pressure 30.13 in
Visibility 10.0 miles
Clouds Scattered Clouds 3000 ft
Scattered Clouds 3600 ft
Mostly Cloudy 10000 ft
Heat Index 76 °F
Dew Point 70 °F
Humidity 82%
Rainfall 0.00 in
Snow Depth Not available.
UV 1 out of 12
Pollen 5.70 out of 12
Air Quality Not available.
Flu Activity Sporadic
METAR KNEW 042253Z AUTO 13014G20KT 10SM -RA SCT030 SCT036 BKN100 26/18 A3015 RMK AO2 RAB13E22B43 SLP202 P0000 T02610178 TSNO

More Conditions Fewer Conditions

Pressure 30.13 in
Visibility 10.0 miles
Clouds Scattered Clouds 3000 ft
Scattered Clouds 3600 ft
Mostly Cloudy 10000 ft
Heat Index 76 °F
Dew Point 70 °F
Humidity 82%
Rainfall 0.00 in
Snow Depth Not available.
UV 1 out of 12
Pollen 5.70 out of 12
Air Quality Not available.
Flu Activity Sporadic
METAR KNEW 042253Z AUTO 13014G20KT 10SM -RA SCT030 SCT036 BKN100 26/18 A3015 RMK AO2 RAB13E22B43 SLP202 P0000 T02610178 TSNO

More Conditions Fewer Conditions

Nepal has a long way to go to dig out and rebuild from a devastating earthquake. We have teamed up with several charities and organizations to make contributing to the relief effort as easy as possible.
How you can help: Portlight Strategies | Red Cross

10-Day Weather Forecast

Almanac

Astronomy

May. 04, 2015 Rise Set
Actual Time
Civil Twilight
Nautical Twilight
Astronomical Twilight
Moon
Length of Visible Light
Length of Day
Tomorrow will be .
, % of the Moon is Illuminated

Today's Extremes

State Highs State Lows

Community

WunderPhotos

Upload Photos

1,818,726 photos uploaded!

WunderBlogs® & News

Nearby

Air Quality

  Air Quality AQ Index Pollutant
Not available.

Snow Depth

Station Depth Elevation

Earthquake Activity

City Distance Mag. Time & Date
Minimum magnitude displayed is 2.5.

Coastal Water Temperatures

Place Temperature

Stations

Nearby Weather Stations

Station Location Temp. Windchill Dew Point Humidity Wind Precip. Elev Updated Type